Time;durP1;ratioP1;P1;durP2;ratioP2;P2;SDS_P1;SDS_P2;PMS_P1;PMS_P2;Temp;Humidity;BMP_temperature;BMP_pressure;BME280_temperature;BME280_humidity;BME280_pressure;Samples;Min_cycle;Max_cycle;Signal;HPM_P1;HPM_P2
2023/10/19 00:00:36;;;;;;;8.43;4.43;;;;;;;;;;5046259;28;20032;-71
2023/10/19 00:03:04;;;;;;;6.93;4.53;;;;;;;;;;5050294;28;20025;-72
2023/10/19 00:05:30;;;;;;;8.90;4.93;;;;;;;;;;5045135;28;20037;-72
2023/10/19 00:07:57;;;;;;;9.50;5.22;;;;;;;;;;5048869;28;20519;-72
2023/10/19 00:10:22;;;;;;;11.60;6.13;;;;;;;;;;5051062;28;20052;-72
2023/10/19 00:12:57;;;;;;;9.75;4.18;;;;;;;;;;5050456;28;20045;-72
2023/10/19 00:15:24;;;;;;;12.98;5.72;;;;;;;;;;5043237;28;20024;-72
2023/10/19 00:17:53;;;;;;;15.00;7.15;;;;;;;;;;5043455;28;20033;-72
2023/10/19 00:20:35;;;;;;;8.63;3.45;;;;;;;;;;5009322;28;20021;-72
2023/10/19 00:23:02;;;;;;;15.05;6.55;;;;;;;;;;5030160;28;20030;-72
2023/10/19 00:25:29;;;;;;;10.77;4.72;;;;;;;;;;5029509;28;20049;-72
2023/10/19 00:27:54;;;;;;;8.93;4.10;;;;;;;;;;5030321;28;20014;-72
2023/10/19 00:30:23;;;;;;;12.57;5.17;;;;;;;;;;5030702;28;20025;-72
2023/10/19 00:32:48;;;;;;;7.25;3.42;;;;;;;;;;5024941;28;20275;-72
2023/10/19 00:35:35;;;;;;;14.85;4.85;;;;;;;;;;5027442;28;20009;-72
2023/10/19 00:40:58;;;;;;;6.97;4.03;;;;;;;;;;5029790;28;20042;-72
2023/10/19 00:43:33;;;;;;;6.45;2.33;;;;;;;;;;5023374;28;20026;-72
2023/10/19 00:46:01;;;;;;;10.88;5.90;;;;;;;;;;5027994;28;20083;-72
2023/10/19 00:48:27;;;;;;;4.90;2.53;;;;;;;;;;5026924;28;20416;-72
2023/10/19 00:51:03;;;;;;;10.60;5.80;;;;;;;;;;5030197;28;20021;-72
2023/10/19 00:53:29;;;;;;;8.43;3.38;;;;;;;;;;5030407;28;20028;-72
2023/10/19 00:55:54;;;;;;;6.30;3.88;;;;;;;;;;5029029;28;20010;-72
2023/10/19 00:58:28;;;;;;;4.47;3.05;;;;;;;;;;5029852;28;20036;-72
2023/10/19 01:00:55;;;;;;;7.15;3.72;;;;;;;;;;5023862;28;20041;-72
2023/10/19 01:03:20;;;;;;;14.38;4.32;;;;;;;;;;5029946;28;20076;-72
2023/10/19 01:05:48;;;;;;;9.25;4.63;;;;;;;;;;5029708;28;20057;-72
2023/10/19 01:08:23;;;;;;;7.07;4.78;;;;;;;;;;5029863;28;20013;-72
2023/10/19 01:10:52;;;;;;;10.75;4.15;;;;;;;;;;5029637;28;20037;-72
2023/10/19 01:13:17;;;;;;;7.38;4.15;;;;;;;;;;5020071;28;20025;-72
2023/10/19 01:15:42;;;;;;;10.77;4.75;;;;;;;;;;5025797;28;20470;-72
2023/10/19 01:18:10;;;;;;;11.93;6.50;;;;;;;;;;5036862;28;20477;-72
2023/10/19 01:20:50;;;;;;;14.52;6.63;;;;;;;;;;5048077;28;20357;-72
2023/10/19 01:23:25;;;;;;;15.13;7.93;;;;;;;;;;5031665;28;20029;-72
2023/10/19 01:28:28;;;;;;;15.10;8.02;;;;;;;;;;5047042;28;20036;-72
2023/10/19 01:30:53;;;;;;;19.98;8.82;;;;;;;;;;5048407;28;20046;-72
2023/10/19 01:33:18;;;;;;;15.17;8.80;;;;;;;;;;5049548;28;20108;-72
2023/10/19 01:38:31;;;;;;;15.70;7.95;;;;;;;;;;5043680;28;20031;-72
2023/10/19 01:40:59;;;;;;;17.00;7.78;;;;;;;;;;5047552;28;20386;-72
2023/10/19 01:43:25;;;;;;;14.07;7.03;;;;;;;;;;5047080;28;20020;-72
2023/10/19 01:45:56;;;;;;;11.70;6.15;;;;;;;;;;5046132;28;20052;-72
2023/10/19 01:48:28;;;;;;;4.15;2.50;;;;;;;;;;5044728;28;20025;-72
2023/10/19 01:50:53;;;;;;;4.22;2.55;;;;;;;;;;5049044;28;20029;-72
2023/10/19 01:53:18;;;;;;;20.47;6.23;;;;;;;;;;5049357;28;20416;-72
2023/10/19 01:55:47;;;;;;;8.23;4.18;;;;;;;;;;5047543;28;20267;-72
2023/10/19 01:58:14;;;;;;;14.23;7.47;;;;;;;;;;5047970;28;20049;-72
2023/10/19 02:00:42;;;;;;;4.50;2.85;;;;;;;;;;5049678;28;20660;-72
2023/10/19 02:03:07;;;;;;;6.53;4.38;;;;;;;;;;5048674;28;20079;-72
2023/10/19 02:05:39;;;;;;;12.43;6.35;;;;;;;;;;5049312;28;20017;-72
2023/10/19 02:08:07;;;;;;;13.60;7.43;;;;;;;;;;5048638;28;20025;-72
2023/10/19 02:10:32;;;;;;;12.13;7.30;;;;;;;;;;5049611;28;20032;-72
2023/10/19 02:12:57;;;;;;;6.93;3.80;;;;;;;;;;5051558;28;20405;-72
2023/10/19 02:15:23;;;;;;;12.90;7.15;;;;;;;;;;5053084;28;20070;-72
2023/10/19 02:17:49;;;;;;;17.00;6.65;;;;;;;;;;5052843;28;20094;-72
2023/10/19 02:20:17;;;;;;;14.90;7.05;;;;;;;;;;5052782;28;20021;-72
2023/10/19 02:22:42;;;;;;;16.13;6.13;;;;;;;;;;5052368;28;20474;-72
2023/10/19 02:25:10;;;;;;;12.13;6.53;;;;;;;;;;5049195;28;20037;-72
2023/10/19 02:27:35;;;;;;;11.43;5.93;;;;;;;;;;5053033;28;20263;-72
2023/10/19 02:30:01;;;;;;;9.97;5.20;;;;;;;;;;5052550;28;20029;-72
2023/10/19 02:32:26;;;;;;;6.82;3.50;;;;;;;;;;5052579;28;20251;-72
2023/10/19 02:34:51;;;;;;;13.30;5.75;;;;;;;;;;5052039;28;20047;-72
2023/10/19 02:37:16;;;;;;;13.60;5.83;;;;;;;;;;5050925;28;20031;-72
2023/10/19 02:39:43;;;;;;;8.20;5.03;;;;;;;;;;5052181;28;20248;-71
2023/10/19 02:42:08;;;;;;;14.15;5.32;;;;;;;;;;5052371;28;20302;-72
2023/10/19 02:44:34;;;;;;;16.43;5.30;;;;;;;;;;5052620;28;20033;-72
2023/10/19 02:46:59;;;;;;;9.13;3.10;;;;;;;;;;5034165;28;20343;-72
2023/10/19 02:49:25;;;;;;;11.35;6.10;;;;;;;;;;5052775;28;20100;-72
2023/10/19 02:51:51;;;;;;;10.52;4.93;;;;;;;;;;5049815;28;20044;-72
2023/10/19 02:54:19;;;;;;;10.35;5.63;;;;;;;;;;5044094;28;20015;-72
2023/10/19 02:56:49;;;;;;;7.57;3.97;;;;;;;;;;5052085;28;20442;-72
2023/10/19 02:59:15;;;;;;;4.10;2.60;;;;;;;;;;5052387;28;20020;-72
2023/10/19 03:01:44;;;;;;;9.57;5.20;;;;;;;;;;5052047;28;20108;-72
2023/10/19 03:04:09;;;;;;;11.00;5.53;;;;;;;;;;5050977;28;20053;-72
2023/10/19 03:06:34;;;;;;;6.93;4.20;;;;;;;;;;5050934;28;20067;-72
2023/10/19 03:09:22;;;;;;;7.07;4.07;;;;;;;;;;5051907;28;20301;-72
2023/10/19 03:11:51;;;;;;;9.45;4.53;;;;;;;;;;5051961;28;20397;-72
2023/10/19 03:14:17;;;;;;;9.13;3.35;;;;;;;;;;5051731;28;20021;-72
2023/10/19 03:16:42;;;;;;;12.38;4.35;;;;;;;;;;5051484;28;20386;-72
2023/10/19 03:19:07;;;;;;;1.85;1.33;;;;;;;;;;5050325;28;20017;-72
2023/10/19 03:21:41;;;;;;;7.07;3.70;;;;;;;;;;5051113;28;20050;-72
2023/10/19 03:24:12;;;;;;;9.98;3.60;;;;;;;;;;5051334;28;20083;-72
2023/10/19 03:26:38;;;;;;;5.10;3.00;;;;;;;;;;5051648;28;20039;-72
2023/10/19 03:29:14;;;;;;;7.47;3.38;;;;;;;;;;5051346;28;20017;-72
2023/10/19 03:31:43;;;;;;;12.77;5.38;;;;;;;;;;5051090;28;20532;-72
2023/10/19 03:34:09;;;;;;;8.10;4.75;;;;;;;;;;5050683;28;20027;-72
2023/10/19 03:36:35;;;;;;;8.88;4.25;;;;;;;;;;5050838;28;20040;-72
2023/10/19 03:39:11;;;;;;;6.60;4.35;;;;;;;;;;5043301;28;20045;-72
2023/10/19 03:41:36;;;;;;;7.40;3.85;;;;;;;;;;5051724;28;20554;-72
2023/10/19 03:44:03;;;;;;;8.45;4.00;;;;;;;;;;5050422;28;20076;-72
2023/10/19 03:46:28;;;;;;;9.93;4.03;;;;;;;;;;5045644;28;20021;-72
2023/10/19 03:48:58;;;;;;;10.82;4.43;;;;;;;;;;5031881;28;20021;-72
2023/10/19 03:51:26;;;;;;;6.40;3.90;;;;;;;;;;5051379;28;20500;-72
2023/10/19 03:53:55;;;;;;;10.20;3.03;;;;;;;;;;5050757;28;20059;-72
2023/10/19 03:56:20;;;;;;;3.75;2.45;;;;;;;;;;5043133;28;20074;-72
2023/10/19 03:58:50;;;;;;;11.80;3.67;;;;;;;;;;5051026;28;20021;-72
2023/10/19 04:01:16;;;;;;;16.38;3.85;;;;;;;;;;5046589;28;20430;-72
2023/10/19 04:03:41;;;;;;;5.18;3.45;;;;;;;;;;5031322;28;20386;-72
2023/10/19 04:06:13;;;;;;;7.30;3.85;;;;;;;;;;5046210;28;20029;-72
2023/10/19 04:08:38;;;;;;;5.80;3.17;;;;;;;;;;5031564;28;20109;-72
2023/10/19 04:11:21;;;;;;;12.47;4.00;;;;;;;;;;5048527;28;20553;-72
2023/10/19 04:13:46;;;;;;;3.63;2.17;;;;;;;;;;5050462;28;20755;-72
2023/10/19 04:16:12;;;;;;;4.90;3.00;;;;;;;;;;5050220;28;20109;-72
2023/10/19 04:18:38;;;;;;;7.80;3.30;;;;;;;;;;5050609;28;20288;-72
2023/10/19 04:21:04;;;;;;;6.90;3.20;;;;;;;;;;5040499;28;20032;-72
2023/10/19 04:23:34;;;;;;;4.72;2.85;;;;;;;;;;5042569;28;20021;-72
2023/10/19 04:26:04;;;;;;;4.88;3.33;;;;;;;;;;5050252;28;20059;-72
2023/10/19 04:28:44;;;;;;;14.70;3.35;;;;;;;;;;5050865;28;20016;-72
2023/10/19 04:31:13;;;;;;;7.60;3.00;;;;;;;;;;5047237;28;20029;-72
2023/10/19 04:33:38;;;;;;;6.45;3.17;;;;;;;;;;5049402;28;20358;-72
2023/10/19 04:36:08;;;;;;;4.68;2.92;;;;;;;;;;5049705;28;20074;-72
2023/10/19 04:38:33;;;;;;;8.25;3.47;;;;;;;;;;5044820;28;20098;-72
2023/10/19 04:41:09;;;;;;;8.20;3.40;;;;;;;;;;5047892;28;20119;-72
2023/10/19 04:43:35;;;;;;;8.00;3.22;;;;;;;;;;5050319;28;20516;-72
2023/10/19 04:46:07;;;;;;;6.07;3.28;;;;;;;;;;5048013;28;20021;-72
2023/10/19 04:48:32;;;;;;;10.95;3.58;;;;;;;;;;5039186;28;20379;-72
2023/10/19 04:50:58;;;;;;;5.47;3.72;;;;;;;;;;5044814;28;20025;-72
2023/10/19 04:53:23;;;;;;;5.03;3.45;;;;;;;;;;5045174;28;20482;-72
2023/10/19 04:55:48;;;;;;;14.98;3.30;;;;;;;;;;5045815;28;20017;-72
2023/10/19 04:58:13;;;;;;;7.20;3.42;;;;;;;;;;5049585;28;20017;-72
2023/10/19 05:00:38;;;;;;;5.73;3.50;;;;;;;;;;5043922;28;20105;-72
2023/10/19 05:03:04;;;;;;;9.77;3.93;;;;;;;;;;5030886;28;20280;-72
2023/10/19 05:05:29;;;;;;;11.68;4.40;;;;;;;;;;5035186;28;20373;-72
2023/10/19 05:07:54;;;;;;;9.43;4.23;;;;;;;;;;5030254;28;20167;-72
2023/10/19 05:10:19;;;;;;;6.10;3.17;;;;;;;;;;5032602;28;20299;-72
2023/10/19 05:12:44;;;;;;;7.65;3.50;;;;;;;;;;5032548;28;20314;-72
2023/10/19 05:15:10;;;;;;;9.33;3.07;;;;;;;;;;5037468;28;20016;-72
2023/10/19 05:17:35;;;;;;;9.73;3.60;;;;;;;;;;5027675;28;20891;-72
2023/10/19 05:20:00;;;;;;;15.40;3.90;;;;;;;;;;5018331;28;20032;-72
2023/10/19 05:22:29;;;;;;;14.17;4.60;;;;;;;;;;5015704;28;20295;-72
2023/10/19 05:24:54;;;;;;;9.82;3.80;;;;;;;;;;5015591;28;20349;-72
2023/10/19 05:27:19;;;;;;;11.35;4.35;;;;;;;;;;5013342;28;20055;-72
2023/10/19 05:29:45;;;;;;;7.32;3.95;;;;;;;;;;5021493;28;20646;-72
2023/10/19 05:32:10;;;;;;;14.35;3.33;;;;;;;;;;5014227;28;20100;-72
2023/10/19 05:34:36;;;;;;;10.52;3.67;;;;;;;;;;5018430;28;20021;-72
2023/10/19 05:37:02;;;;;;;5.25;3.10;;;;;;;;;;5013767;28;20016;-72
2023/10/19 05:39:27;;;;;;;6.05;2.95;;;;;;;;;;5017345;28;20068;-72
2023/10/19 05:41:53;;;;;;;3.85;2.08;;;;;;;;;;5012967;28;20087;-72
2023/10/19 05:44:18;;;;;;;4.50;2.67;;;;;;;;;;5024382;28;20017;-72
2023/10/19 05:46:44;;;;;;;5.85;2.75;;;;;;;;;;5026352;28;20387;-72
2023/10/19 05:49:09;;;;;;;4.90;2.10;;;;;;;;;;5022514;28;20481;-72
2023/10/19 05:51:35;;;;;;;12.23;2.80;;;;;;;;;;5020025;28;20025;-72
2023/10/19 05:54:03;;;;;;;4.25;2.33;;;;;;;;;;5017381;28;20010;-72
2023/10/19 05:56:30;;;;;;;8.65;2.70;;;;;;;;;;5016461;28;20104;-72
2023/10/19 05:58:55;;;;;;;14.05;3.92;;;;;;;;;;5021507;28;20022;-72
2023/10/19 06:01:22;;;;;;;14.18;5.38;;;;;;;;;;5023941;28;20454;-72
2023/10/19 06:03:47;;;;;;;20.98;6.82;;;;;;;;;;5024969;28;20116;-71
2023/10/19 06:06:12;;;;;;;15.07;5.40;;;;;;;;;;5032575;28;20037;-72
2023/10/19 06:08:37;;;;;;;9.45;3.90;;;;;;;;;;5033122;28;20025;-72
2023/10/19 06:11:03;;;;;;;10.38;2.97;;;;;;;;;;5032900;28;20037;-72
2023/10/19 06:13:29;;;;;;;7.78;4.18;;;;;;;;;;5024365;28;20106;-71
2023/10/19 06:15:54;;;;;;;10.82;4.25;;;;;;;;;;5031230;28;20017;-72
2023/10/19 06:18:20;;;;;;;7.80;3.38;;;;;;;;;;5033843;28;20029;-72
2023/10/19 06:20:45;;;;;;;8.13;3.50;;;;;;;;;;5053090;28;20032;-72
2023/10/19 06:23:11;;;;;;;5.63;2.90;;;;;;;;;;5052189;28;20271;-72
2023/10/19 06:25:37;;;;;;;8.60;1.40;;;;;;;;;;5050091;28;20608;-72
2023/10/19 06:28:02;;;;;;;6.05;2.53;;;;;;;;;;5049453;28;20028;-72
2023/10/19 06:30:28;;;;;;;5.97;2.63;;;;;;;;;;5052119;28;20741;-72
2023/10/19 06:32:57;;;;;;;4.65;2.47;;;;;;;;;;5052519;28;20021;-72
2023/10/19 17:38:55;;;;;;;11.15;4.28;;;;;;;;;;5078151;27;20404;-71
2023/10/19 17:41:20;;;;;;;8.50;4.63;;;;;;;;;;5048222;28;20065;-71
2023/10/19 17:43:46;;;;;;;11.45;5.25;;;;;;;;;;5042911;28;20295;-71
2023/10/19 17:46:12;;;;;;;12.60;5.35;;;;;;;;;;5045498;28;20021;-71
2023/10/19 17:48:37;;;;;;;9.48;5.45;;;;;;;;;;5043187;28;20014;-70
2023/10/19 17:51:12;;;;;;;7.65;4.85;;;;;;;;;;5043175;28;20213;-70
2023/10/19 17:53:39;;;;;;;18.67;5.55;;;;;;;;;;5045190;28;20052;-70
2023/10/19 17:56:05;;;;;;;9.13;4.47;;;;;;;;;;5045270;28;20029;-70
2023/10/19 17:58:31;;;;;;;13.13;5.13;;;;;;;;;;5048031;28;20043;-71
2023/10/19 18:00:56;;;;;;;8.23;4.20;;;;;;;;;;5048273;28;20022;-70
2023/10/19 18:03:24;;;;;;;16.83;5.77;;;;;;;;;;5045400;28;20025;-70
2023/10/19 18:05:49;;;;;;;14.40;4.75;;;;;;;;;;5040455;28;20052;-73
2023/10/19 18:08:14;;;;;;;8.77;5.40;;;;;;;;;;5047029;28;20060;-72
2023/10/19 18:10:40;;;;;;;10.88;4.55;;;;;;;;;;5042251;28;20013;-72
2023/10/19 18:13:05;;;;;;;9.15;4.93;;;;;;;;;;5040737;28;20025;-72
2023/10/19 18:15:31;;;;;;;8.65;4.80;;;;;;;;;;5045909;28;20551;-72
2023/10/19 18:17:56;;;;;;;8.05;4.47;;;;;;;;;;5046047;28;20389;-72
2023/10/19 18:20:22;;;;;;;11.35;4.63;;;;;;;;;;5043678;28;20021;-72
2023/10/19 18:22:47;;;;;;;11.15;5.20;;;;;;;;;;5044806;28;20056;-72
2023/10/19 18:25:13;;;;;;;12.27;4.78;;;;;;;;;;5054186;28;20041;-72
2023/10/19 18:27:38;;;;;;;9.05;5.57;;;;;;;;;;5049731;28;20048;-72
2023/10/19 18:30:04;;;;;;;9.10;5.40;;;;;;;;;;5043414;28;20501;-70
2023/10/19 18:32:29;;;;;;;4.97;3.42;;;;;;;;;;5041832;28;20376;-71
2023/10/19 18:34:54;;;;;;;13.15;5.75;;;;;;;;;;5042942;28;20060;-70
2023/10/19 18:37:20;;;;;;;7.63;4.50;;;;;;;;;;5050268;28;20060;-70
2023/10/19 18:39:45;;;;;;;10.85;3.70;;;;;;;;;;5033370;28;20040;-70
2023/10/19 18:42:11;;;;;;;8.93;5.20;;;;;;;;;;5035511;28;20061;-70
2023/10/19 18:44:36;;;;;;;7.72;3.83;;;;;;;;;;5031397;28;20014;-70
2023/10/19 18:47:02;;;;;;;11.23;4.93;;;;;;;;;;5030857;28;20029;-70
2023/10/19 18:49:27;;;;;;;8.67;5.20;;;;;;;;;;5040426;28;20020;-70
2023/10/19 18:51:52;;;;;;;10.60;4.85;;;;;;;;;;5033324;28;20343;-70
2023/10/19 18:54:17;;;;;;;12.77;5.00;;;;;;;;;;5035439;28;20013;-70
2023/10/19 18:56:42;;;;;;;7.57;4.80;;;;;;;;;;5032179;28;20029;-70
2023/10/19 18:59:08;;;;;;;10.07;4.77;;;;;;;;;;5027945;28;20017;-70
2023/10/19 19:01:34;;;;;;;10.43;4.82;;;;;;;;;;5031247;28;20754;-70
2023/10/19 19:03:59;;;;;;;18.02;4.63;;;;;;;;;;5034396;28;20025;-70
2023/10/19 19:06:24;;;;;;;7.90;3.47;;;;;;;;;;5034494;28;20021;-70
2023/10/19 19:08:50;;;;;;;11.60;5.30;;;;;;;;;;5034881;28;20009;-70
2023/10/19 19:11:19;;;;;;;9.73;4.43;;;;;;;;;;5036350;28;20440;-70
2023/10/19 19:13:45;;;;;;;4.90;2.80;;;;;;;;;;5037201;28;20693;-70
2023/10/19 19:16:13;;;;;;;8.35;3.47;;;;;;;;;;5025501;28;20060;-70
2023/10/19 19:18:39;;;;;;;9.02;5.18;;;;;;;;;;5032091;28;20024;-70
2023/10/19 19:21:07;;;;;;;5.68;3.50;;;;;;;;;;5027721;28;20013;-70
2023/10/19 19:23:33;;;;;;;8.52;3.67;;;;;;;;;;5033712;28;20017;-71
2023/10/19 19:25:58;;;;;;;6.70;2.45;;;;;;;;;;5027934;28;20450;-71
2023/10/19 19:28:23;;;;;;;5.75;3.33;;;;;;;;;;5029172;28;20029;-72
2023/10/19 19:30:49;;;;;;;10.80;5.05;;;;;;;;;;5036107;28;20023;-72
2023/10/19 19:33:17;;;;;;;13.90;3.88;;;;;;;;;;5031076;28;20017;-72
2023/10/19 19:35:42;;;;;;;13.68;5.72;;;;;;;;;;5038617;28;20021;-70
2023/10/19 19:38:07;;;;;;;18.10;6.47;;;;;;;;;;5026984;28;20025;-70
2023/10/19 19:40:33;;;;;;;7.22;4.80;;;;;;;;;;5028404;28;20016;-70
2023/10/19 19:42:58;;;;;;;9.73;4.35;;;;;;;;;;5030885;28;20025;-70
2023/10/19 19:45:23;;;;;;;13.73;6.97;;;;;;;;;;5030150;28;20923;-72
2023/10/19 19:47:51;;;;;;;13.95;7.15;;;;;;;;;;5026987;28;20025;-73
2023/10/19 19:50:16;;;;;;;8.02;4.20;;;;;;;;;;5028764;28;20434;-70
2023/10/19 19:52:42;;;;;;;13.57;5.38;;;;;;;;;;5030849;28;20013;-70
2023/10/19 19:55:08;;;;;;;14.70;6.40;;;;;;;;;;5023196;28;20490;-70
2023/10/19 19:57:33;;;;;;;5.80;3.28;;;;;;;;;;5031468;28;20104;-71
2023/10/19 19:59:59;;;;;;;13.20;6.05;;;;;;;;;;5030993;28;20503;-71
2023/10/19 20:02:24;;;;;;;15.90;6.13;;;;;;;;;;5026168;28;21468;-71
2023/10/19 20:04:50;;;;;;;11.43;6.83;;;;;;;;;;5031326;28;20497;-71
2023/10/19 20:07:15;;;;;;;11.35;6.82;;;;;;;;;;5030063;28;20379;-71
2023/10/19 20:09:41;;;;;;;11.65;6.50;;;;;;;;;;5030273;28;20477;-71
2023/10/19 20:12:07;;;;;;;7.53;3.78;;;;;;;;;;5028886;28;20020;-71
2023/10/19 20:14:32;;;;;;;11.18;6.10;;;;;;;;;;5028816;28;20009;-71
2023/10/19 20:16:57;;;;;;;10.07;4.88;;;;;;;;;;5028770;28;20414;-70
2023/10/19 20:19:22;;;;;;;14.63;5.80;;;;;;;;;;5029671;28;20071;-70
2023/10/19 20:21:48;;;;;;;12.30;6.33;;;;;;;;;;5030285;28;20013;-70
2023/10/19 20:24:13;;;;;;;11.32;6.53;;;;;;;;;;5028371;28;20496;-70
2023/10/19 20:26:38;;;;;;;9.00;4.93;;;;;;;;;;5025691;28;20021;-70
2023/10/19 20:29:05;;;;;;;14.67;5.77;;;;;;;;;;5026787;28;20037;-71
2023/10/19 20:31:30;;;;;;;11.15;6.78;;;;;;;;;;5025216;28;20017;-71
2023/10/19 20:33:56;;;;;;;14.48;6.22;;;;;;;;;;5024061;28;20039;-70
2023/10/19 20:36:21;;;;;;;13.45;6.07;;;;;;;;;;5026235;28;20063;-71
2023/10/19 20:38:47;;;;;;;5.30;3.47;;;;;;;;;;5024775;28;20095;-71
2023/10/19 20:41:12;;;;;;;16.48;5.97;;;;;;;;;;5027226;28;20021;-71
2023/10/19 20:43:42;;;;;;;12.93;7.20;;;;;;;;;;5029582;28;20100;-70
2023/10/19 20:46:08;;;;;;;14.10;7.22;;;;;;;;;;5024972;28;20108;-71
2023/10/19 20:48:33;;;;;;;14.27;8.00;;;;;;;;;;5022932;28;20116;-71
2023/10/19 20:50:58;;;;;;;13.02;6.20;;;;;;;;;;5027514;28;20021;-71
2023/10/19 20:53:23;;;;;;;9.97;6.23;;;;;;;;;;5026203;28;20438;-70
2023/10/19 20:55:49;;;;;;;17.05;7.18;;;;;;;;;;5022111;28;20017;-70
2023/10/19 20:58:21;;;;;;;13.00;6.07;;;;;;;;;;5020124;28;20068;-70
2023/10/19 21:00:46;;;;;;;10.82;6.55;;;;;;;;;;5026573;28;20036;-70
2023/10/19 21:03:12;;;;;;;16.33;7.57;;;;;;;;;;5024907;28;20029;-71
2023/10/19 21:05:39;;;;;;;7.75;4.32;;;;;;;;;;5031470;28;20021;-70
2023/10/19 21:08:04;;;;;;;15.65;7.47;;;;;;;;;;5026361;28;20165;-70
2023/10/19 21:10:32;;;;;;;13.13;7.15;;;;;;;;;;5030249;28;20096;-70
2023/10/19 21:12:57;;;;;;;17.02;6.85;;;;;;;;;;5023024;28;20112;-70
2023/10/19 21:15:24;;;;;;;14.95;7.18;;;;;;;;;;5022184;28;20534;-70
2023/10/19 21:17:49;;;;;;;14.40;7.00;;;;;;;;;;5030784;28;20067;-70
2023/10/19 21:20:15;;;;;;;13.93;7.25;;;;;;;;;;5032258;28;20093;-70
2023/10/19 21:22:44;;;;;;;13.85;7.38;;;;;;;;;;5029429;28;20100;-70
2023/10/19 21:25:11;;;;;;;12.75;6.57;;;;;;;;;;5033176;28;20126;-70
2023/10/19 21:27:36;;;;;;;13.90;7.13;;;;;;;;;;5031548;28;20023;-70
2023/10/19 21:30:02;;;;;;;9.23;4.73;;;;;;;;;;5035964;28;20427;-72
2023/10/19 21:32:27;;;;;;;15.20;5.88;;;;;;;;;;5034185;28;20768;-71
2023/10/19 21:34:52;;;;;;;13.47;5.83;;;;;;;;;;5029347;28;20029;-70
2023/10/19 21:37:17;;;;;;;13.45;7.53;;;;;;;;;;5032963;28;20047;-70
2023/10/19 21:39:42;;;;;;;11.00;6.63;;;;;;;;;;5025222;28;20095;-71
2023/10/19 21:42:08;;;;;;;17.15;7.45;;;;;;;;;;5018424;28;20041;-70
2023/10/19 21:44:36;;;;;;;11.68;5.93;;;;;;;;;;5018318;28;20064;-70
2023/10/19 21:47:02;;;;;;;12.20;7.50;;;;;;;;;;5020919;28;20072;-70
2023/10/19 21:49:27;;;;;;;9.63;5.97;;;;;;;;;;5017992;28;20063;-70
2023/10/19 21:51:52;;;;;;;12.75;6.20;;;;;;;;;;5016128;28;20732;-70
2023/10/19 21:54:17;;;;;;;10.40;6.40;;;;;;;;;;5017860;28;20026;-70
2023/10/19 21:56:43;;;;;;;10.73;5.77;;;;;;;;;;5033504;28;20268;-70
2023/10/19 21:59:08;;;;;;;11.45;6.38;;;;;;;;;;5017818;28;20036;-70
2023/10/19 22:01:34;;;;;;;8.95;5.35;;;;;;;;;;5016401;28;20513;-72
2023/10/19 22:03:59;;;;;;;17.60;5.57;;;;;;;;;;5025022;28;20016;-70
2023/10/19 22:06:24;;;;;;;10.37;6.47;;;;;;;;;;5018493;28;20021;-70
2023/10/19 22:08:50;;;;;;;11.57;5.83;;;;;;;;;;5017588;28;20291;-71
2023/10/19 22:11:15;;;;;;;11.65;5.45;;;;;;;;;;5017770;28;20339;-70
2023/10/19 22:13:41;;;;;;;9.03;5.17;;;;;;;;;;5018491;28;20025;-70
2023/10/19 22:16:07;;;;;;;12.60;6.73;;;;;;;;;;5024022;28;20279;-70
2023/10/19 22:18:32;;;;;;;10.45;5.95;;;;;;;;;;5026091;28;20284;-70
2023/10/19 22:20:57;;;;;;;13.60;4.87;;;;;;;;;;5021060;28;20049;-70
2023/10/19 22:23:23;;;;;;;12.00;6.40;;;;;;;;;;5019952;28;20268;-70
2023/10/19 22:25:48;;;;;;;10.65;5.93;;;;;;;;;;5021295;28;20029;-70
2023/10/19 22:28:14;;;;;;;13.43;6.53;;;;;;;;;;5020348;28;20021;-70
2023/10/19 22:30:39;;;;;;;9.60;4.10;;;;;;;;;;5021901;28;20017;-70
2023/10/19 22:33:04;;;;;;;9.45;6.22;;;;;;;;;;5022004;28;20017;-70
2023/10/19 22:35:30;;;;;;;13.23;4.87;;;;;;;;;;5018638;28;20018;-70
2023/10/19 22:37:55;;;;;;;17.65;6.70;;;;;;;;;;5021316;28;20346;-70
2023/10/19 22:40:20;;;;;;;10.13;6.13;;;;;;;;;;5021711;28;20531;-70
2023/10/19 22:42:46;;;;;;;11.80;6.30;;;;;;;;;;5018928;28;20256;-70
2023/10/19 22:45:12;;;;;;;18.10;6.82;;;;;;;;;;5021203;28;20025;-70
2023/10/19 22:47:39;;;;;;;13.60;8.02;;;;;;;;;;5026952;28;20125;-70
2023/10/19 22:50:04;;;;;;;15.25;6.90;;;;;;;;;;5023753;28;20026;-70
2023/10/19 22:52:31;;;;;;;13.43;7.07;;;;;;;;;;5019486;28;20423;-70
2023/10/19 22:54:56;;;;;;;15.18;7.18;;;;;;;;;;5019828;28;20524;-70
2023/10/19 22:57:21;;;;;;;12.70;7.27;;;;;;;;;;5027085;28;20041;-71
2023/10/19 22:59:46;;;;;;;9.80;6.45;;;;;;;;;;5038612;28;20053;-70
2023/10/19 23:02:14;;;;;;;9.05;4.90;;;;;;;;;;5048351;28;20048;-70
2023/10/19 23:04:40;;;;;;;12.60;7.50;;;;;;;;;;5043635;28;20035;-70
2023/10/19 23:07:05;;;;;;;10.63;6.82;;;;;;;;;;5035524;28;20021;-70
2023/10/19 23:09:31;;;;;;;11.60;6.88;;;;;;;;;;5043621;28;20029;-70
2023/10/19 23:12:02;;;;;;;11.75;7.55;;;;;;;;;;5038433;28;20016;-70
2023/10/19 23:14:28;;;;;;;10.48;5.75;;;;;;;;;;5042752;28;20071;-70
2023/10/19 23:16:54;;;;;;;12.07;7.30;;;;;;;;;;5039334;28;20437;-70
2023/10/19 23:19:23;;;;;;;8.38;4.15;;;;;;;;;;5039635;28;20014;-72
2023/10/19 23:21:50;;;;;;;11.10;6.43;;;;;;;;;;5045627;28;20024;-70
2023/10/19 23:24:16;;;;;;;21.55;7.70;;;;;;;;;;5039810;28;20405;-70
2023/10/19 23:26:42;;;;;;;10.80;6.75;;;;;;;;;;5044696;28;20014;-70
2023/10/19 23:29:12;;;;;;;14.45;8.05;;;;;;;;;;5035638;28;20043;-70
2023/10/19 23:31:38;;;;;;;13.85;7.57;;;;;;;;;;5042928;28;20027;-70
2023/10/19 23:34:03;;;;;;;15.98;8.63;;;;;;;;;;5042902;28;20009;-70
2023/10/19 23:36:29;;;;;;;12.93;7.03;;;;;;;;;;5041072;28;20504;-70
2023/10/19 23:38:54;;;;;;;14.60;7.03;;;;;;;;;;5049487;28;20263;-70
2023/10/19 23:41:19;;;;;;;16.80;8.07;;;;;;;;;;5040764;28;20035;-70
2023/10/19 23:43:45;;;;;;;3.20;2.10;;;;;;;;;;5037881;28;20347;-70
2023/10/19 23:46:10;;;;;;;12.85;7.95;;;;;;;;;;5032569;28;20037;-70
2023/10/19 23:48:35;;;;;;;14.30;7.60;;;;;;;;;;5049191;28;20031;-70
2023/10/19 23:51:00;;;;;;;13.18;8.05;;;;;;;;;;5044950;28;20461;-70
2023/10/19 23:53:26;;;;;;;15.60;8.83;;;;;;;;;;5041623;28;20069;-70
2023/10/19 23:55:51;;;;;;;9.57;6.10;;;;;;;;;;5038436;28;20609;-70
2023/10/19 23:58:16;;;;;;;14.18;7.80;;;;;;;;;;5045189;28;20048;-70
